createdAt,value
2022-10-22T00:01:14.197Z,4.93
2022-10-22T00:03:19.066Z,4.53
2022-10-22T00:05:23.807Z,4.47
2022-10-22T00:07:31.200Z,4.22
2022-10-22T00:09:35.944Z,4.97
2022-10-22T00:11:40.860Z,4.22
2022-10-22T00:15:52.316Z,4.32
2022-10-22T00:17:57.082Z,5.05
2022-10-22T00:20:01.784Z,3.85
2022-10-22T00:22:07.081Z,3.90
2022-10-22T00:24:14.413Z,4.65
2022-10-22T00:26:19.146Z,4.05
2022-10-22T00:28:23.887Z,4.03
2022-10-22T00:30:32.468Z,4.65
2022-10-22T00:32:37.417Z,4.75
2022-10-22T00:34:42.449Z,4.70
2022-10-22T00:36:47.282Z,4.50
2022-10-22T00:38:52.036Z,5.10
2022-10-22T00:40:59.495Z,4.75
2022-10-22T00:43:04.395Z,4.82
2022-10-22T00:45:24.919Z,4.78
2022-10-22T00:47:35.926Z,4.78
2022-10-22T00:49:40.718Z,4.90
2022-10-22T00:51:45.525Z,4.53
2022-10-22T00:53:53.609Z,4.65
2022-10-22T00:56:01.718Z,3.83
2022-10-22T00:58:06.937Z,4.18
2022-10-22T01:00:13.833Z,3.95
2022-10-22T01:02:19.126Z,4.68
2022-10-22T01:04:23.953Z,3.97
2022-10-22T01:06:34.264Z,4.13
2022-10-22T01:08:47.486Z,3.92
2022-10-22T01:11:06.572Z,4.53
2022-10-22T01:13:20.285Z,3.88
2022-10-22T01:15:31.128Z,4.28
2022-10-22T01:17:42.987Z,4.85
2022-10-22T01:20:00.740Z,4.22
2022-10-22T01:22:11.848Z,4.03
2022-10-22T01:24:38.519Z,4.00
2022-10-22T01:27:02.552Z,2.95
2022-10-22T01:29:14.418Z,2.78
2022-10-22T01:31:20.974Z,2.53
2022-10-22T01:33:30.746Z,2.17
2022-10-22T01:35:40.197Z,2.95
2022-10-22T01:37:52.281Z,2.10
2022-10-22T01:39:58.731Z,2.00
2022-10-22T01:42:03.483Z,1.83
2022-10-22T01:44:28.211Z,1.98
2022-10-22T01:46:33.367Z,1.58
2022-10-22T01:48:51.636Z,1.42
2022-10-22T01:51:09.989Z,1.92
2022-10-22T01:53:26.184Z,1.40
2022-10-22T01:55:39.167Z,1.52
2022-10-22T01:57:51.602Z,1.80
2022-10-22T02:00:05.365Z,1.50
2022-10-22T02:02:26.538Z,1.35
2022-10-22T02:04:36.592Z,1.42
2022-10-22T02:06:45.341Z,1.20
2022-10-22T02:08:52.236Z,1.13
2022-10-22T02:10:58.073Z,1.40
2022-10-22T02:13:04.375Z,1.30
2022-10-22T02:15:14.913Z,0.98
2022-10-22T02:17:25.507Z,1.27
2022-10-22T02:19:38.394Z,0.95
2022-10-22T02:21:43.179Z,1.33
2022-10-22T02:23:48.309Z,1.08
2022-10-22T02:25:58.540Z,1.30
2022-10-22T02:28:15.691Z,1.08
2022-10-22T02:30:25.467Z,0.90
2022-10-22T02:32:35.582Z,1.05
2022-10-22T02:34:40.662Z,1.38
2022-10-22T02:38:56.336Z,1.00
2022-10-22T02:41:01.888Z,1.10
2022-10-22T02:43:07.656Z,1.20
2022-10-22T02:45:13.411Z,1.00
2022-10-22T02:47:20.892Z,1.00
2022-10-22T02:49:25.702Z,1.10
2022-10-22T02:51:30.463Z,1.00
2022-10-22T02:53:35.411Z,1.00
2022-10-22T02:55:40.116Z,1.00
2022-10-22T02:57:45.268Z,1.10
2022-10-22T03:01:54.506Z,1.05
2022-10-22T03:04:01.945Z,1.00
2022-10-22T03:06:06.895Z,1.05
2022-10-22T03:08:11.614Z,1.10
2022-10-22T03:10:16.343Z,0.95
2022-10-22T03:12:21.090Z,0.90
2022-10-22T03:14:25.839Z,1.05
2022-10-22T03:16:30.639Z,1.13
2022-10-22T03:18:35.468Z,1.10
2022-10-22T03:20:42.799Z,1.00
2022-10-22T03:22:48.012Z,1.20
2022-10-22T03:27:01.168Z,1.10
2022-10-22T03:29:06.078Z,1.10
2022-10-22T03:31:11.217Z,0.80
2022-10-22T03:33:15.907Z,1.13
2022-10-22T03:35:20.729Z,1.10
2022-10-22T03:37:30.305Z,1.30
2022-10-22T03:39:37.803Z,1.13
2022-10-22T03:41:43.034Z,1.25
2022-10-22T03:43:51.606Z,1.00
2022-10-22T03:45:56.325Z,1.02
2022-10-22T03:48:01.068Z,1.10
2022-10-22T03:50:06.302Z,1.42
2022-10-22T03:54:19.633Z,0.90
2022-10-22T03:56:24.719Z,0.95
2022-10-22T03:58:31.275Z,1.10
2022-10-22T04:00:38.433Z,1.10
2022-10-22T04:02:43.192Z,0.98
2022-10-22T04:04:47.916Z,0.90
2022-10-22T04:06:52.686Z,1.10
2022-10-22T04:08:57.511Z,1.10
2022-10-22T04:11:04.855Z,1.40
2022-10-22T04:13:09.635Z,1.10
2022-10-22T04:15:14.361Z,1.00
2022-10-22T04:17:19.366Z,0.80
2022-10-22T04:19:24.227Z,1.00
2022-10-22T04:21:30.785Z,1.15
2022-10-22T04:23:35.592Z,1.60
2022-10-22T04:25:40.438Z,1.20
2022-10-22T04:27:47.722Z,1.17
2022-10-22T04:29:52.484Z,1.00
2022-10-22T04:31:57.277Z,0.70
2022-10-22T04:34:03.458Z,0.95
2022-10-22T04:36:12.612Z,0.95
2022-10-22T04:38:17.513Z,0.80
2022-10-22T04:40:22.189Z,0.63
2022-10-22T04:42:29.937Z,0.73
2022-10-22T04:44:37.721Z,0.93
2022-10-22T04:46:42.449Z,0.73
2022-10-22T04:48:48.694Z,0.63
2022-10-22T04:50:53.504Z,0.80
2022-10-22T04:52:58.490Z,3.22
2022-10-22T04:55:03.263Z,1.80
2022-10-22T04:57:08.025Z,0.90
2022-10-22T04:59:15.406Z,1.10
2022-10-22T05:01:28.087Z,0.90
2022-10-22T05:03:32.864Z,0.90
2022-10-22T05:05:37.554Z,0.73
2022-10-22T05:07:42.597Z,0.73
2022-10-22T05:09:47.731Z,1.30
2022-10-22T05:11:54.266Z,1.08
2022-10-22T05:13:59.768Z,1.83
2022-10-22T05:16:04.956Z,1.20
2022-10-22T05:18:12.269Z,1.00
2022-10-22T05:20:16.980Z,0.90
2022-10-22T05:22:21.742Z,1.20
2022-10-22T05:24:26.978Z,1.02
2022-10-22T05:28:37.642Z,1.15
2022-10-22T05:30:42.370Z,1.30
2022-10-22T05:32:47.215Z,1.20
2022-10-22T05:34:54.591Z,1.10
2022-10-22T05:36:59.801Z,1.27
2022-10-22T05:41:11.162Z,1.02
2022-10-22T05:43:16.536Z,0.95
2022-10-22T05:45:21.258Z,1.30
2022-10-22T05:47:27.318Z,1.02
2022-10-22T05:49:32.288Z,1.25
2022-10-22T05:51:40.054Z,1.50
2022-10-22T05:53:45.685Z,1.80
2022-10-22T05:55:50.410Z,1.55
2022-10-22T05:57:55.163Z,1.70
2022-10-22T05:59:59.921Z,2.60
2022-10-22T06:02:04.774Z,2.15
2022-10-22T06:04:16.215Z,2.13
2022-10-22T06:06:27.395Z,1.83
2022-10-22T06:08:34.860Z,2.03
2022-10-22T06:10:40.174Z,1.90
2022-10-22T06:12:44.915Z,1.70
2022-10-22T06:14:49.710Z,2.42
2022-10-22T06:16:54.863Z,2.53
2022-10-22T06:19:01.973Z,3.20
2022-10-22T06:21:08.703Z,2.53
2022-10-22T06:23:13.551Z,2.65
2022-10-22T06:25:20.991Z,1.70
2022-10-22T06:27:25.745Z,1.92
2022-10-22T06:29:30.539Z,1.92
2022-10-22T06:31:37.018Z,1.70
2022-10-22T06:33:43.672Z,1.90
2022-10-22T06:35:48.679Z,2.10
2022-10-22T06:37:53.423Z,2.33
2022-10-22T06:39:58.212Z,1.95
2022-10-22T06:42:05.516Z,1.92
2022-10-22T06:44:16.746Z,1.85
2022-10-22T06:46:23.534Z,1.80
2022-10-22T06:48:28.414Z,1.50
2022-10-22T06:50:33.435Z,2.22
2022-10-22T06:52:38.217Z,2.20
2022-10-22T06:54:42.997Z,1.70
2022-10-22T06:56:47.825Z,1.77
2022-10-22T06:58:57.282Z,1.90
2022-10-22T07:01:06.450Z,2.05
2022-10-22T07:03:13.863Z,2.67
2022-10-22T07:05:18.728Z,2.72
2022-10-22T07:07:23.434Z,1.90
2022-10-22T07:09:29.967Z,2.15
2022-10-22T07:11:41.992Z,2.42
2022-10-22T07:13:47.213Z,2.03
2022-10-22T07:18:04.801Z,1.90
2022-10-22T07:20:10.708Z,1.83
2022-10-22T07:22:15.462Z,1.40
2022-10-22T07:24:20.186Z,2.03
2022-10-22T07:26:25.557Z,2.17
2022-10-22T07:28:30.762Z,2.25
2022-10-22T07:30:35.566Z,2.08
2022-10-22T07:32:42.941Z,2.10
2022-10-22T07:34:47.762Z,2.20
2022-10-22T07:36:52.499Z,2.42
2022-10-22T07:38:59.945Z,2.35
2022-10-22T07:41:05.053Z,2.20
2022-10-22T07:45:14.351Z,2.35
2022-10-22T07:47:19.186Z,2.30
2022-10-22T07:49:26.758Z,2.13
2022-10-22T07:51:31.505Z,3.40
2022-10-22T07:53:37.312Z,3.00
2022-10-22T07:55:42.125Z,2.20
2022-10-22T07:57:46.852Z,1.58
2022-10-22T07:59:51.651Z,1.60
2022-10-22T08:01:56.358Z,1.90
2022-10-22T08:04:01.114Z,1.42
2022-10-22T08:06:09.198Z,1.55
2022-10-22T08:08:15.081Z,1.75
2022-10-22T08:10:19.932Z,1.42
2022-10-22T08:12:24.798Z,1.70
2022-10-22T08:14:32.549Z,1.40
2022-10-22T08:16:37.320Z,1.50
2022-10-22T08:18:42.162Z,1.58
2022-10-22T08:20:47.037Z,1.33
2022-10-22T08:22:54.389Z,1.40
2022-10-22T08:25:00.492Z,1.20
2022-10-22T08:27:05.267Z,1.20
2022-10-22T08:29:10.200Z,1.17
2022-10-22T08:31:15.439Z,1.08
2022-10-22T08:35:28.190Z,1.20
2022-10-22T08:37:32.937Z,1.10
2022-10-22T08:39:40.366Z,1.05
2022-10-22T08:41:57.242Z,0.90
2022-10-22T08:44:31.794Z,0.77
2022-10-22T08:46:55.741Z,1.13
2022-10-22T08:49:03.046Z,1.08
2022-10-22T08:51:08.614Z,1.00
2022-10-22T08:53:18.790Z,1.00
2022-10-22T08:55:28.395Z,1.10
2022-10-22T08:57:52.134Z,1.23
2022-10-22T09:00:04.772Z,0.70
2022-10-22T09:02:23.779Z,0.80
2022-10-22T09:04:33.938Z,0.70
2022-10-22T09:06:40.747Z,0.95
2022-10-22T09:08:48.151Z,0.73
2022-10-22T09:11:01.461Z,0.70
2022-10-22T09:13:06.213Z,0.90
2022-10-22T09:15:15.984Z,1.00
2022-10-22T09:17:29.121Z,0.80
2022-10-22T09:19:42.835Z,0.93
2022-10-22T09:22:00.265Z,0.82
2022-10-22T09:24:14.101Z,1.15
2022-10-22T09:26:21.446Z,1.10
2022-10-22T09:28:26.396Z,1.10
2022-10-22T09:32:36.494Z,0.88
2022-10-22T09:34:41.977Z,0.73
2022-10-22T09:36:46.709Z,1.08
2022-10-22T09:38:53.703Z,1.50
2022-10-22T09:41:00.680Z,0.73
2022-10-22T09:43:08.111Z,1.00
2022-10-22T09:45:20.923Z,0.90
2022-10-22T09:47:43.588Z,1.00
2022-10-22T09:50:15.262Z,1.27
2022-10-22T09:52:33.627Z,0.98
2022-10-22T09:54:44.306Z,1.15
2022-10-22T09:56:58.632Z,0.90
2022-10-22T09:59:06.643Z,1.00
2022-10-22T10:01:11.406Z,0.70
2022-10-22T10:03:20.361Z,0.80
2022-10-22T10:05:31.342Z,1.08
2022-10-22T10:07:38.289Z,0.80
2022-10-22T10:09:43.183Z,1.05
2022-10-22T10:11:54.744Z,1.38
2022-10-22T10:14:14.058Z,0.73
2022-10-22T10:16:33.816Z,0.82
2022-10-22T10:18:55.804Z,1.10
2022-10-22T10:21:09.517Z,0.70
2022-10-22T10:23:24.547Z,1.02
2022-10-22T10:25:48.668Z,1.02
2022-10-22T10:28:02.549Z,0.80
2022-10-22T10:30:17.834Z,0.90
2022-10-22T10:32:37.838Z,1.00
2022-10-22T10:34:49.105Z,0.80
2022-10-22T10:37:04.024Z,0.80
2022-10-22T10:39:14.158Z,0.70
2022-10-22T10:41:35.261Z,0.93
2022-10-22T10:43:52.208Z,0.88
2022-10-22T10:46:10.587Z,1.02
2022-10-22T10:48:35.979Z,0.70
2022-10-22T10:50:51.146Z,0.50
2022-10-22T10:53:06.256Z,0.70
2022-10-22T10:55:19.459Z,0.80
2022-10-22T10:57:37.163Z,1.10
2022-10-22T10:59:52.948Z,1.00
2022-10-22T11:02:16.769Z,0.82
2022-10-22T11:04:46.671Z,0.80
2022-10-22T11:07:05.876Z,1.00
2022-10-22T11:09:27.396Z,1.00
2022-10-22T11:11:38.549Z,1.60
2022-10-22T11:13:50.373Z,1.30
2022-10-22T11:16:00.698Z,1.00
2022-10-22T11:18:17.133Z,1.23
2022-10-22T11:20:26.877Z,1.30
2022-10-22T11:22:36.510Z,1.40
2022-10-22T11:24:50.784Z,1.35
2022-10-22T11:27:00.762Z,0.85
2022-10-22T11:29:07.821Z,0.93
2022-10-22T11:31:17.610Z,0.90
2022-10-22T11:33:31.028Z,1.00
2022-10-22T11:35:38.471Z,0.88
2022-10-22T11:37:46.149Z,1.02
2022-10-22T11:39:54.028Z,0.90
2022-10-22T11:42:01.255Z,1.20
2022-10-22T11:44:14.617Z,1.20
2022-10-22T11:46:31.707Z,1.50
2022-10-22T11:48:41.241Z,0.85
2022-10-22T11:50:53.097Z,1.00
2022-10-22T11:53:05.507Z,0.80
2022-10-22T11:55:35.381Z,0.80
2022-10-22T11:57:41.741Z,1.80
2022-10-22T11:59:53.221Z,0.90
2022-10-22T12:01:58.853Z,0.88
2022-10-22T12:04:24.970Z,1.40
2022-10-22T12:06:31.793Z,1.30
2022-10-22T12:08:37.161Z,1.05
2022-10-22T12:10:58.305Z,1.30
2022-10-22T12:13:08.297Z,1.27
2022-10-22T12:15:27.577Z,1.23
2022-10-22T12:17:33.888Z,1.50
2022-10-22T12:19:44.083Z,1.80
2022-10-22T12:21:52.639Z,0.85
2022-10-22T12:23:57.573Z,1.27
2022-10-22T12:26:02.535Z,1.35
2022-10-22T12:28:09.905Z,0.90
2022-10-22T12:30:22.434Z,1.38
2022-10-22T12:32:36.626Z,0.80
2022-10-22T12:36:57.300Z,0.90
2022-10-22T12:39:03.213Z,1.15
2022-10-22T12:41:08.288Z,1.33
2022-10-22T12:45:19.672Z,1.17
2022-10-22T12:47:24.496Z,1.42
2022-10-22T12:49:37.301Z,1.00
2022-10-22T12:51:45.117Z,0.90
2022-10-22T12:53:52.009Z,1.23
2022-10-22T12:55:58.623Z,0.80
2022-10-22T12:58:08.580Z,1.17
2022-10-22T13:00:26.648Z,0.98
2022-10-22T13:02:32.500Z,0.63
2022-10-22T13:04:38.784Z,0.80
2022-10-22T13:06:50.454Z,1.00
2022-10-22T13:09:10.943Z,0.82
2022-10-22T13:11:15.721Z,0.80
2022-10-22T13:13:43.554Z,0.80
2022-10-22T13:15:48.348Z,0.60
2022-10-22T13:17:54.018Z,0.82
2022-10-22T13:20:05.441Z,0.70
2022-10-22T13:22:30.825Z,0.80
2022-10-22T13:24:39.225Z,0.88
2022-10-22T13:26:43.971Z,0.80
2022-10-22T13:28:54.754Z,1.13
2022-10-22T13:31:01.505Z,0.93
2022-10-22T13:33:08.639Z,1.20
2022-10-22T13:35:26.568Z,0.98
2022-10-22T13:37:38.737Z,0.60
2022-10-22T13:39:43.620Z,1.63
2022-10-22T13:41:50.386Z,0.82
2022-10-22T13:43:55.878Z,0.77
2022-10-22T13:46:02.754Z,0.60
2022-10-22T13:48:07.945Z,1.20
2022-10-22T13:50:17.523Z,0.80
2022-10-22T13:52:42.184Z,0.88
2022-10-22T13:54:47.205Z,0.80
2022-10-22T13:56:52.894Z,0.70
2022-10-22T13:58:57.723Z,0.80
2022-10-22T14:01:08.749Z,0.70
2022-10-22T14:03:14.965Z,0.95
2022-10-22T14:05:21.124Z,0.80
2022-10-22T14:07:25.871Z,0.80
2022-10-22T14:09:33.176Z,0.70
2022-10-22T14:11:37.989Z,0.80
2022-10-22T14:13:43.074Z,0.70
2022-10-22T14:15:50.912Z,0.88
2022-10-22T14:17:59.397Z,0.80
2022-10-22T14:20:04.526Z,1.15
2022-10-22T14:22:13.090Z,0.55
2022-10-22T14:24:17.865Z,0.70
2022-10-22T14:26:31.425Z,0.77
2022-10-22T14:28:41.270Z,0.70
2022-10-22T14:30:57.215Z,0.80
2022-10-22T14:33:02.198Z,0.70
2022-10-22T14:35:07.360Z,0.80
2022-10-22T14:39:30.277Z,0.95
2022-10-22T14:41:37.901Z,1.15
2022-10-22T14:43:42.593Z,0.93
2022-10-22T14:45:47.356Z,0.90
2022-10-22T14:47:52.468Z,0.90
2022-10-22T14:52:01.773Z,1.27
2022-10-22T14:54:06.778Z,1.27
2022-10-22T14:56:14.849Z,1.60
2022-10-22T14:58:22.288Z,1.92
2022-10-22T15:00:27.055Z,1.52
2022-10-22T15:02:31.869Z,0.98
2022-10-22T15:04:36.713Z,0.80
2022-10-22T15:06:41.508Z,0.95
2022-10-22T15:08:48.136Z,1.00
2022-10-22T15:11:01.591Z,1.10
2022-10-22T15:13:06.418Z,1.20
2022-10-22T15:15:14.136Z,1.05
2022-10-22T15:17:20.226Z,1.25
2022-10-22T15:19:25.013Z,1.15
2022-10-22T15:21:32.534Z,1.13
2022-10-22T15:25:46.475Z,1.10
2022-10-22T15:27:52.567Z,1.13
2022-10-22T15:30:00.786Z,1.20
2022-10-22T15:32:10.430Z,1.13
2022-10-22T15:34:15.680Z,1.13
2022-10-22T15:36:20.463Z,1.20
2022-10-22T15:40:35.103Z,1.10
2022-10-22T15:42:40.157Z,1.17
2022-10-22T15:44:45.117Z,1.23
2022-10-22T15:48:58.170Z,1.25
2022-10-22T15:51:02.942Z,1.30
2022-10-22T15:53:08.109Z,1.42
2022-10-22T15:57:37.738Z,1.35
2022-10-22T15:59:42.490Z,1.27
2022-10-22T16:01:47.933Z,1.30
2022-10-22T16:04:00.282Z,1.52
2022-10-22T16:06:09.237Z,1.30
2022-10-22T16:08:14.313Z,1.10
2022-10-22T16:10:21.790Z,1.23
2022-10-22T16:12:26.680Z,1.50
2022-10-22T16:14:31.608Z,1.67
2022-10-22T16:16:39.929Z,1.10
2022-10-22T16:18:44.644Z,2.03
2022-10-22T16:20:49.796Z,2.45
2022-10-22T16:25:01.624Z,4.90
2022-10-22T16:27:07.034Z,6.53
2022-10-22T16:29:12.683Z,6.57
2022-10-22T16:31:19.741Z,5.65
2022-10-22T16:33:24.897Z,5.00
2022-10-22T16:35:32.879Z,4.75
2022-10-22T16:37:39.267Z,4.15
2022-10-22T16:39:46.882Z,4.18
2022-10-22T16:41:51.913Z,3.40
2022-10-22T16:44:00.421Z,2.92
2022-10-22T16:46:05.985Z,2.75
2022-10-22T16:48:11.797Z,2.50
2022-10-22T16:50:16.526Z,2.40
2022-10-22T16:52:21.297Z,2.30
2022-10-22T16:54:26.080Z,2.65
2022-10-22T16:56:33.756Z,3.33
2022-10-22T16:58:38.484Z,2.75
2022-10-22T17:00:43.309Z,3.17
2022-10-22T17:02:48.148Z,3.83
2022-10-22T17:04:52.949Z,5.53
2022-10-22T17:06:57.663Z,7.82
2022-10-22T17:09:02.468Z,6.47
2022-10-22T17:11:11.285Z,5.72
2022-10-22T17:13:18.747Z,6.07
2022-10-22T17:15:23.479Z,5.53
2022-10-22T17:17:30.686Z,3.75
2022-10-22T17:19:38.821Z,4.55
2022-10-22T17:21:43.657Z,4.32
2022-10-22T17:23:49.046Z,5.22
2022-10-22T17:26:01.234Z,4.40
2022-10-22T17:28:06.050Z,4.80
2022-10-22T17:30:19.208Z,4.55
2022-10-22T17:32:26.691Z,4.07
2022-10-22T17:34:33.301Z,3.65
2022-10-22T17:36:38.787Z,3.35
2022-10-22T17:38:45.458Z,3.85
2022-10-22T17:40:50.226Z,3.60
2022-10-22T17:42:55.122Z,3.63
2022-10-22T17:45:00.341Z,3.60
2022-10-22T17:49:18.895Z,3.35
2022-10-22T17:51:24.928Z,3.13
2022-10-22T17:53:30.856Z,3.90
2022-10-22T17:55:36.337Z,3.97
2022-10-22T17:57:41.486Z,3.67
2022-10-22T18:01:50.757Z,4.15
2022-10-22T18:04:02.210Z,5.00
2022-10-22T18:06:11.075Z,7.45
2022-10-22T18:08:15.869Z,12.27
2022-10-22T18:10:20.579Z,14.25
2022-10-22T18:12:26.868Z,12.57
2022-10-22T18:14:31.575Z,14.20
2022-10-22T18:16:36.562Z,10.95
2022-10-22T18:18:41.374Z,9.38
2022-10-22T18:20:51.453Z,8.50
2022-10-22T18:22:57.097Z,8.50
2022-10-22T18:25:01.803Z,7.40
2022-10-22T18:27:06.734Z,6.28
2022-10-22T18:29:12.625Z,6.63
2022-10-22T18:31:21.520Z,6.22
2022-10-22T18:33:26.720Z,6.20
2022-10-22T18:37:42.476Z,5.88
2022-10-22T18:39:47.544Z,7.78
2022-10-22T18:41:52.266Z,7.97
2022-10-22T18:43:58.993Z,8.48
2022-10-22T18:46:04.347Z,7.60
2022-10-22T18:50:13.560Z,7.55
2022-10-22T18:52:18.322Z,7.40
2022-10-22T18:54:28.336Z,7.80
2022-10-22T18:56:33.126Z,6.80
2022-10-22T18:58:40.681Z,6.20
2022-10-22T19:00:45.500Z,6.60
2022-10-22T19:02:50.265Z,6.35
2022-10-22T19:04:55.020Z,6.22
2022-10-22T19:07:00.039Z,5.35
2022-10-22T19:09:04.870Z,5.80
2022-10-22T19:11:16.319Z,7.43
2022-10-22T19:13:23.456Z,7.88
2022-10-22T19:15:30.298Z,7.18
2022-10-22T19:17:35.077Z,7.40
2022-10-22T19:19:39.851Z,7.20
2022-10-22T19:21:44.560Z,7.43
2022-10-22T19:23:49.603Z,6.88
2022-10-22T19:26:02.959Z,6.80
2022-10-22T19:28:10.385Z,7.20
2022-10-22T19:30:16.219Z,5.57
2022-10-22T19:32:21.526Z,6.25
2022-10-22T19:34:26.424Z,5.78
2022-10-22T19:36:32.816Z,6.32
2022-10-22T19:38:38.124Z,6.68
2022-10-22T19:40:43.769Z,6.72
2022-10-22T19:42:51.327Z,6.97
2022-10-22T19:44:58.714Z,6.20
2022-10-22T19:47:03.458Z,5.95
2022-10-22T19:49:08.719Z,5.97
2022-10-22T19:53:21.981Z,5.00
2022-10-22T19:55:29.344Z,5.07
2022-10-22T19:57:34.114Z,4.72
2022-10-22T19:59:38.918Z,5.03
2022-10-22T20:01:46.585Z,4.75
2022-10-22T20:03:51.655Z,5.20
2022-10-22T20:08:00.975Z,5.10
2022-10-22T20:10:06.087Z,4.15
2022-10-22T20:12:10.908Z,4.45
2022-10-22T20:14:16.554Z,4.20
2022-10-22T20:16:23.641Z,5.00
2022-10-22T20:18:32.724Z,6.97
2022-10-22T20:20:40.067Z,5.97
2022-10-22T20:22:44.906Z,5.38
2022-10-22T20:24:49.730Z,5.40
2022-10-22T20:26:54.482Z,5.07
2022-10-22T20:28:59.900Z,4.05
2022-10-22T20:31:04.652Z,4.45
2022-10-22T20:33:09.448Z,4.57
2022-10-22T20:35:17.986Z,4.35
2022-10-22T20:37:22.702Z,4.32
2022-10-22T20:39:27.627Z,4.90
2022-10-22T20:41:34.037Z,5.43
2022-10-22T20:43:38.835Z,4.57
2022-10-22T20:45:43.648Z,5.32
2022-10-22T20:47:51.557Z,6.97
2022-10-22T20:50:03.033Z,6.65
2022-10-22T20:52:10.951Z,6.68
2022-10-22T20:54:19.001Z,6.80
2022-10-22T20:56:26.771Z,5.65
2022-10-22T20:58:32.136Z,5.88
2022-10-22T21:00:39.383Z,5.60
2022-10-22T21:02:44.162Z,5.90
2022-10-22T21:04:49.011Z,5.45
2022-10-22T21:06:53.704Z,5.35
2022-10-22T21:09:01.104Z,5.78
2022-10-22T21:11:05.972Z,5.38
2022-10-22T21:13:10.821Z,5.40
2022-10-22T21:15:15.622Z,5.18
2022-10-22T21:17:20.396Z,4.55
2022-10-22T21:19:26.112Z,4.78
2022-10-22T21:21:31.101Z,3.92
2022-10-22T21:23:36.367Z,4.00
2022-10-22T21:27:48.799Z,3.58
2022-10-22T21:29:53.619Z,4.88
2022-10-22T21:31:58.339Z,4.03
2022-10-22T21:34:03.145Z,4.30
2022-10-22T21:36:09.645Z,3.83
2022-10-22T21:38:14.434Z,3.60
2022-10-22T21:40:19.198Z,4.10
2022-10-22T21:42:26.675Z,3.80
2022-10-22T21:44:31.592Z,3.65
2022-10-22T21:46:37.578Z,3.80
2022-10-22T21:48:42.490Z,3.70
2022-10-22T21:50:47.553Z,3.75
2022-10-22T21:54:57.005Z,3.33
2022-10-22T21:57:01.732Z,3.38
2022-10-22T21:59:10.081Z,3.15
2022-10-22T22:01:15.879Z,3.42
2022-10-22T22:03:20.666Z,3.67
2022-10-22T22:05:27.450Z,4.28
2022-10-22T22:07:32.247Z,3.92
2022-10-22T22:09:37.012Z,3.20
2022-10-22T22:11:41.763Z,3.28
2022-10-22T22:13:47.292Z,3.55
2022-10-22T22:15:55.141Z,2.88
2022-10-22T22:17:59.924Z,3.05
2022-10-22T22:20:05.956Z,3.30
2022-10-22T22:22:10.825Z,2.67
2022-10-22T22:24:16.089Z,2.95
2022-10-22T22:26:29.610Z,3.53
2022-10-22T22:28:35.958Z,2.90
2022-10-22T22:30:40.695Z,3.25
2022-10-22T22:32:48.062Z,3.08
2022-10-22T22:34:52.821Z,2.97
2022-10-22T22:36:57.535Z,3.20
2022-10-22T22:39:02.298Z,3.53
2022-10-22T22:41:07.631Z,3.67
2022-10-22T22:43:13.898Z,2.90
2022-10-22T22:45:18.874Z,4.07
2022-10-22T22:47:23.637Z,3.50
2022-10-22T22:49:30.953Z,3.25
2022-10-22T22:51:36.833Z,3.30
2022-10-22T22:53:41.531Z,3.30
2022-10-22T22:55:46.401Z,2.90
2022-10-22T22:57:51.212Z,3.15
2022-10-22T22:59:55.964Z,3.25
2022-10-22T23:02:01.256Z,3.05
2022-10-22T23:06:14.968Z,3.38
2022-10-22T23:08:19.716Z,2.92
2022-10-22T23:10:24.552Z,3.00
2022-10-22T23:12:29.522Z,3.05
2022-10-22T23:14:34.263Z,3.55
2022-10-22T23:16:44.307Z,3.10
2022-10-22T23:18:50.270Z,3.17
2022-10-22T23:20:55.218Z,2.90
2022-10-22T23:23:06.107Z,3.00
2022-10-22T23:25:12.176Z,3.03
2022-10-22T23:27:16.884Z,3.22
2022-10-22T23:29:24.716Z,3.10
2022-10-22T23:31:29.626Z,2.65
2022-10-22T23:33:34.331Z,2.67
2022-10-22T23:35:42.219Z,2.47
2022-10-22T23:37:47.010Z,3.17
2022-10-22T23:39:54.278Z,2.95
2022-10-22T23:41:59.705Z,3.10
2022-10-22T23:44:04.820Z,2.92
2022-10-22T23:48:15.005Z,3.00
2022-10-22T23:50:19.760Z,2.65
2022-10-22T23:52:24.529Z,2.97
2022-10-22T23:54:29.387Z,3.28
2022-10-22T23:56:37.570Z,3.15
2022-10-22T23:58:42.873Z,3.28
